createdAt,value
2023-03-12T00:01:06.371Z,3.3
2023-03-12T00:02:14.729Z,3.3
2023-03-12T00:03:24.196Z,3.3
2023-03-12T00:04:32.546Z,3.3
2023-03-12T00:05:40.868Z,3.3
2023-03-12T00:06:49.380Z,3.6
2023-03-12T00:07:57.731Z,3.6
2023-03-12T00:09:06.056Z,3.6
2023-03-12T00:10:14.589Z,4
2023-03-12T00:11:22.941Z,4
2023-03-12T00:12:31.266Z,4
2023-03-12T00:13:39.818Z,4.3
2023-03-12T00:14:48.147Z,4.3
2023-03-12T00:15:56.494Z,4.3
2023-03-12T00:17:05.011Z,3.9
2023-03-12T00:18:13.344Z,3.9
2023-03-12T00:19:21.664Z,3.9
2023-03-12T00:20:30.209Z,3.4
2023-03-12T00:21:38.553Z,3.4
2023-03-12T00:22:46.871Z,3.4
2023-03-12T00:23:55.402Z,2.6
2023-03-12T00:25:03.724Z,2.6
2023-03-12T00:26:12.068Z,2.6
2023-03-12T00:27:20.593Z,4
2023-03-12T00:28:28.915Z,4
2023-03-12T00:29:37.246Z,4
2023-03-12T00:30:45.769Z,3
2023-03-12T00:31:54.117Z,3
2023-03-12T00:33:02.446Z,3
2023-03-12T00:34:10.975Z,4.1
2023-03-12T00:35:19.294Z,4.1
2023-03-12T00:36:27.621Z,4.1
2023-03-12T00:37:36.182Z,4.8
2023-03-12T00:38:44.483Z,4.8
2023-03-12T00:39:52.798Z,4.8
2023-03-12T00:41:01.341Z,4.6
2023-03-12T00:42:09.684Z,4.6
2023-03-12T00:43:18.008Z,4.6
2023-03-12T00:44:26.558Z,3.5
2023-03-12T00:45:34.876Z,3.5
2023-03-12T00:46:43.289Z,3.5
2023-03-12T00:47:51.739Z,3.7
2023-03-12T00:49:00.095Z,3.7
2023-03-12T00:50:08.394Z,3.7
2023-03-12T00:51:16.929Z,4
2023-03-12T00:52:25.276Z,4
2023-03-12T00:53:33.633Z,4
2023-03-12T00:54:42.151Z,6.1
2023-03-12T00:55:50.480Z,6.1
2023-03-12T00:56:58.825Z,6.1
2023-03-12T00:58:07.361Z,3.8
2023-03-12T00:59:15.671Z,3.8
2023-03-12T01:00:24.128Z,3.8
2023-03-12T01:01:32.531Z,4.3
2023-03-12T01:02:40.878Z,4.3
2023-03-12T01:03:49.210Z,4.3
2023-03-12T01:04:57.746Z,4.5
2023-03-12T01:06:06.085Z,4.5
2023-03-12T01:07:14.398Z,4.5
2023-03-12T01:08:22.950Z,2.4
2023-03-12T01:09:31.291Z,2.4
2023-03-12T01:10:39.591Z,2.4
2023-03-12T01:11:48.151Z,3.4
2023-03-12T01:12:56.487Z,3.4
2023-03-12T01:14:04.832Z,3.4
2023-03-12T01:15:13.357Z,3.4
2023-03-12T01:16:21.735Z,3.4
2023-03-12T01:17:30.031Z,3.4
2023-03-12T01:18:38.573Z,4.5
2023-03-12T01:19:46.896Z,4.5
2023-03-12T01:20:55.243Z,4.5
2023-03-12T01:22:03.782Z,3.7
2023-03-12T01:23:12.105Z,3.7
2023-03-12T01:24:20.426Z,3.7
2023-03-12T01:25:28.987Z,3.7
2023-03-12T01:26:37.286Z,3.7
2023-03-12T01:27:45.631Z,3.7
2023-03-12T01:28:54.152Z,4.2
2023-03-12T01:30:02.473Z,4.2
2023-03-12T01:31:10.849Z,4.2
2023-03-12T01:32:19.414Z,3.4
2023-03-12T01:33:28.753Z,3.4
2023-03-12T01:34:37.074Z,3.4
2023-03-12T01:35:45.739Z,3.5
2023-03-12T01:36:53.964Z,3.5
2023-03-12T01:38:02.300Z,3.5
2023-03-12T01:39:10.817Z,4.4
2023-03-12T01:40:19.138Z,4.4
2023-03-12T01:41:27.483Z,4.4
2023-03-12T01:42:36.010Z,2.8
2023-03-12T01:43:44.332Z,2.8
2023-03-12T01:44:52.651Z,2.8
2023-03-12T01:46:01.280Z,3.1
2023-03-12T01:47:09.526Z,3.1
2023-03-12T01:48:17.854Z,3.1
2023-03-12T01:49:26.396Z,5.2
2023-03-12T01:50:34.707Z,5.2
2023-03-12T01:51:43.039Z,5.2
2023-03-12T01:52:51.581Z,4
2023-03-12T01:53:59.902Z,4
2023-03-12T01:55:08.242Z,4
2023-03-12T01:56:16.777Z,3.4
2023-03-12T01:57:25.132Z,3.4
2023-03-12T01:58:33.418Z,3.4
2023-03-12T01:59:41.957Z,3.2
2023-03-12T02:00:50.336Z,3.2
2023-03-12T02:01:58.632Z,3.2
2023-03-12T02:03:07.168Z,3.3
2023-03-12T02:04:15.601Z,3.3
2023-03-12T02:05:23.829Z,3.3
2023-03-12T02:06:32.359Z,3.8
2023-03-12T02:07:40.699Z,3.8
2023-03-12T02:08:49.026Z,3.8
2023-03-12T02:09:57.555Z,4.4
2023-03-12T02:11:05.884Z,4.4
2023-03-12T02:12:14.404Z,4.4
2023-03-12T02:13:22.784Z,5.4
2023-03-12T02:14:31.078Z,5.4
2023-03-12T02:15:39.411Z,5.4
2023-03-12T02:16:48.082Z,3.4
2023-03-12T02:17:56.368Z,3.4
2023-03-12T02:19:04.679Z,3.4
2023-03-12T02:20:13.210Z,3.8
2023-03-12T02:21:21.547Z,3.8
2023-03-12T02:22:29.870Z,3.8
2023-03-12T02:23:38.444Z,4.1
2023-03-12T02:24:46.735Z,4.1
2023-03-12T02:25:55.052Z,4.1
2023-03-12T02:27:03.597Z,5.1
2023-03-12T02:28:11.911Z,5.1
2023-03-12T02:29:20.264Z,5.1
2023-03-12T02:30:28.772Z,5.4
2023-03-12T02:31:37.149Z,5.4
2023-03-12T02:32:45.478Z,5.4
2023-03-12T02:33:53.965Z,4.2
2023-03-12T02:35:02.307Z,4.2
2023-03-12T02:36:10.689Z,4.2
2023-03-12T02:37:19.188Z,5.7
2023-03-12T02:38:27.489Z,5.7
2023-03-12T02:39:35.802Z,5.7
2023-03-12T02:40:44.330Z,5.5
2023-03-12T02:41:52.659Z,5.5
2023-03-12T02:43:01.017Z,5.5
2023-03-12T02:44:09.520Z,5.3
2023-03-12T02:45:17.865Z,5.3
2023-03-12T02:46:26.195Z,5.3
2023-03-12T02:47:34.705Z,8.3
2023-03-12T02:48:43.023Z,8.3
2023-03-12T02:49:51.343Z,8.3
2023-03-12T02:50:59.873Z,6
2023-03-12T02:52:08.217Z,6
2023-03-12T02:53:16.539Z,6
2023-03-12T02:54:25.073Z,5
2023-03-12T02:55:33.399Z,5
2023-03-12T02:56:41.727Z,5
2023-03-12T02:57:50.276Z,5.9
2023-03-12T02:58:58.597Z,5.9
2023-03-12T03:00:06.922Z,5.9
2023-03-12T03:01:15.508Z,6.2
2023-03-12T03:02:23.793Z,6.2
2023-03-12T03:03:32.124Z,6.2
2023-03-12T03:04:40.631Z,5.2
2023-03-12T03:05:49.007Z,5.2
2023-03-12T03:06:57.347Z,5.2
2023-03-12T03:08:05.875Z,6.2
2023-03-12T03:09:14.190Z,6.2
2023-03-12T03:10:22.531Z,6.2
2023-03-12T03:11:31.081Z,6.3
2023-03-12T03:12:39.386Z,6.3
2023-03-12T03:13:47.717Z,6.3
2023-03-12T03:14:56.251Z,5
2023-03-12T03:16:04.625Z,5
2023-03-12T03:17:12.947Z,5
2023-03-12T03:18:21.452Z,5.2
2023-03-12T03:19:29.797Z,5.2
2023-03-12T03:20:38.126Z,5.2
2023-03-12T03:21:46.641Z,4.8
2023-03-12T03:22:54.978Z,4.8
2023-03-12T03:24:03.317Z,4.8
2023-03-12T03:25:11.839Z,7.5
2023-03-12T03:26:20.167Z,7.5
2023-03-12T03:27:28.527Z,7.5
2023-03-12T03:28:37.068Z,5
2023-03-12T03:29:41.284Z,5
2023-03-12T03:30:49.623Z,5
2023-03-12T03:31:58.157Z,5
2023-03-12T03:33:06.511Z,5
2023-03-12T03:34:14.800Z,5
2023-03-12T03:35:23.340Z,4.7
2023-03-12T03:36:31.646Z,4.7
2023-03-12T03:37:40.010Z,4.7
2023-03-12T03:38:48.522Z,4.8
2023-03-12T03:39:56.850Z,4.8
2023-03-12T03:41:05.180Z,4.8
2023-03-12T03:42:13.722Z,4.3
2023-03-12T03:43:22.046Z,4.3
2023-03-12T03:44:30.374Z,4.3
2023-03-12T03:45:38.891Z,5.2
2023-03-12T03:46:47.225Z,5.2
2023-03-12T03:47:55.555Z,5.2
2023-03-12T03:49:04.133Z,5.5
2023-03-12T03:50:12.417Z,5.5
2023-03-12T03:51:20.752Z,5.5
2023-03-12T03:52:29.300Z,5.4
2023-03-12T03:53:37.629Z,5.4
2023-03-12T03:54:45.948Z,5.4
2023-03-12T03:55:54.482Z,6.8
2023-03-12T03:57:02.830Z,6.8
2023-03-12T03:58:11.150Z,6.8
2023-03-12T03:59:19.679Z,3.8
2023-03-12T04:00:27.995Z,3.8
2023-03-12T04:01:36.322Z,3.8
2023-03-12T04:02:44.886Z,5.3
2023-03-12T04:03:53.193Z,5.3
2023-03-12T04:05:01.540Z,5.3
2023-03-12T04:06:10.053Z,6
2023-03-12T04:07:18.377Z,6
2023-03-12T04:08:26.697Z,6
2023-03-12T04:09:35.229Z,5.3
2023-03-12T04:10:43.558Z,5.3
2023-03-12T04:11:51.901Z,5.3
2023-03-12T04:13:00.446Z,5.4
2023-03-12T04:14:08.811Z,5.4
2023-03-12T04:15:17.086Z,5.4
2023-03-12T04:16:25.663Z,4.6
2023-03-12T04:17:33.954Z,4.6
2023-03-12T04:18:42.269Z,4.6
2023-03-12T04:19:50.821Z,4.5
2023-03-12T04:20:59.251Z,4.5
2023-03-12T04:22:07.514Z,4.5
2023-03-12T04:23:16.051Z,5.7
2023-03-12T04:24:24.373Z,5.7
2023-03-12T04:25:32.743Z,5.7
2023-03-12T04:26:41.285Z,4.5
2023-03-12T04:27:49.612Z,4.5
2023-03-12T04:28:57.931Z,4.5
2023-03-12T04:30:06.461Z,4.7
2023-03-12T04:31:14.780Z,4.7
2023-03-12T04:32:23.156Z,4.7
2023-03-12T04:33:31.653Z,4.3
2023-03-12T04:34:39.976Z,4.3
2023-03-12T04:35:48.327Z,4.3
2023-03-12T04:36:56.866Z,3.5
2023-03-12T04:38:05.168Z,3.5
2023-03-12T04:39:13.496Z,3.5
2023-03-12T04:40:22.029Z,4.9
2023-03-12T04:41:30.361Z,4.9
2023-03-12T04:42:38.698Z,4.9
2023-03-12T04:43:47.218Z,4
2023-03-12T04:44:55.568Z,4
2023-03-12T04:46:03.867Z,4
2023-03-12T04:47:12.406Z,3.2
2023-03-12T04:48:20.759Z,3.2
2023-03-12T04:49:29.054Z,3.2
2023-03-12T04:50:37.594Z,5.5
2023-03-12T04:51:45.924Z,5.5
2023-03-12T04:52:54.274Z,5.5
2023-03-12T04:54:02.787Z,3.9
2023-03-12T04:55:11.106Z,3.9
2023-03-12T04:56:19.437Z,3.9
2023-03-12T04:57:27.975Z,3.8
2023-03-12T04:58:36.299Z,3.8
2023-03-12T04:59:44.622Z,3.8
2023-03-12T05:00:53.160Z,5.1
2023-03-12T05:02:01.491Z,5.1
2023-03-12T05:03:09.947Z,5.1
2023-03-12T05:04:18.339Z,3.3
2023-03-12T05:05:26.653Z,3.3
2023-03-12T05:06:34.994Z,3.3
2023-03-12T05:07:43.533Z,4.2
2023-03-12T05:08:51.876Z,4.2
2023-03-12T05:10:00.183Z,4.2
2023-03-12T05:11:08.701Z,4.6
2023-03-12T05:12:17.042Z,4.6
2023-03-12T05:13:25.376Z,4.6
2023-03-12T05:14:33.916Z,3.6
2023-03-12T05:15:42.230Z,3.6
2023-03-12T05:16:50.560Z,3.6
2023-03-12T05:17:59.083Z,3.3
2023-03-12T05:19:07.421Z,3.3
2023-03-12T05:20:15.738Z,3.3
2023-03-12T05:21:24.268Z,4.7
2023-03-12T05:22:32.603Z,4.7
2023-03-12T05:23:40.931Z,4.7
2023-03-12T05:24:49.502Z,5.1
2023-03-12T05:25:57.810Z,5.1
2023-03-12T05:27:06.157Z,5.1
2023-03-12T05:28:14.677Z,6
2023-03-12T05:29:23.001Z,6
2023-03-12T05:30:31.355Z,6
2023-03-12T05:31:39.875Z,3.9
2023-03-12T05:32:48.301Z,3.9
2023-03-12T05:33:56.500Z,3.9
2023-03-12T05:35:05.043Z,5.2
2023-03-12T05:36:13.385Z,5.2
2023-03-12T05:37:21.680Z,5.2
2023-03-12T05:38:30.207Z,3.8
2023-03-12T05:39:38.533Z,3.8
2023-03-12T05:40:46.881Z,3.8
2023-03-12T05:41:55.398Z,5.5
2023-03-12T05:43:03.710Z,5.5
2023-03-12T05:44:12.040Z,5.5
2023-03-12T05:45:20.584Z,4.6
2023-03-12T05:46:28.895Z,4.6
2023-03-12T05:47:37.218Z,4.6
2023-03-12T05:48:45.780Z,4.1
2023-03-12T05:49:54.104Z,4.1
2023-03-12T05:51:02.432Z,4.1
2023-03-12T05:52:10.963Z,5.7
2023-03-12T05:53:19.286Z,5.7
2023-03-12T05:54:27.609Z,5.7
2023-03-12T05:55:36.140Z,6.5
2023-03-12T05:56:44.504Z,6.5
2023-03-12T05:57:52.804Z,6.5
2023-03-12T05:59:01.388Z,6.8
2023-03-12T06:00:09.668Z,6.8
2023-03-12T06:01:17.989Z,6.8
2023-03-12T06:02:26.584Z,5.6
2023-03-12T06:03:34.893Z,5.6
2023-03-12T06:04:43.175Z,5.6
2023-03-12T06:05:51.690Z,5.3
2023-03-12T06:07:00.034Z,5.3
2023-03-12T06:08:08.344Z,5.3
2023-03-12T06:09:16.884Z,6.5
2023-03-12T06:10:25.196Z,6.5
2023-03-12T06:11:33.524Z,6.5
2023-03-12T06:12:42.093Z,6.8
2023-03-12T06:13:50.398Z,6.8
2023-03-12T06:14:58.724Z,6.8
2023-03-12T06:16:07.264Z,5.4
2023-03-12T06:17:15.579Z,5.4
2023-03-12T06:18:24.192Z,5.4
2023-03-12T06:19:32.655Z,6.7
2023-03-12T06:20:40.981Z,6.7
2023-03-12T06:21:49.331Z,6.7
2023-03-12T06:22:57.890Z,5.4
2023-03-12T06:24:06.214Z,5.4
2023-03-12T06:25:14.546Z,5.4
2023-03-12T06:26:23.102Z,5.1
2023-03-12T06:27:31.450Z,5.1
2023-03-12T06:28:39.777Z,5.1
2023-03-12T06:29:48.285Z,5.7
2023-03-12T06:30:56.622Z,5.7
2023-03-12T06:32:04.938Z,5.7
2023-03-12T06:33:13.472Z,3.9
2023-03-12T06:34:21.786Z,3.9
2023-03-12T06:35:30.226Z,3.9
2023-03-12T06:36:38.638Z,5.8
2023-03-12T06:37:47.079Z,5.8
2023-03-12T06:38:57.079Z,5.8
2023-03-12T06:40:03.937Z,5.3
2023-03-12T06:41:12.276Z,5.3
2023-03-12T06:42:20.603Z,5.3
2023-03-12T06:43:29.138Z,5.8
2023-03-12T06:44:37.479Z,5.8
2023-03-12T06:45:45.901Z,5.8
2023-03-12T06:46:54.413Z,5.9
2023-03-12T06:48:02.766Z,5.9
2023-03-12T06:49:11.081Z,5.9
2023-03-12T06:50:19.622Z,5.9
2023-03-12T06:51:27.978Z,5.9
2023-03-12T06:52:36.463Z,5.9
2023-03-12T06:53:44.999Z,7.1
2023-03-12T06:54:53.330Z,7.1
2023-03-12T06:56:01.648Z,7.1
2023-03-12T06:57:10.217Z,6.7
2023-03-12T06:58:18.518Z,6.7
2023-03-12T06:59:26.863Z,6.7
2023-03-12T07:00:35.413Z,6.4
2023-03-12T07:01:43.721Z,6.4
2023-03-12T07:02:52.052Z,6.4
2023-03-12T07:04:00.599Z,5
2023-03-12T07:05:09.001Z,5
2023-03-12T07:06:17.223Z,5
2023-03-12T07:07:25.819Z,10
2023-03-12T07:08:34.135Z,10
2023-03-12T07:09:42.495Z,10
2023-03-12T07:10:51.005Z,33.900002
2023-03-12T07:11:59.366Z,33.900002
2023-03-12T07:13:07.657Z,33.900002
2023-03-12T07:14:16.196Z,115.8
2023-03-12T07:15:24.508Z,115.8
2023-03-12T07:16:32.959Z,115.8
2023-03-12T07:17:41.419Z,74.900002
2023-03-12T07:18:49.737Z,74.900002
2023-03-12T07:19:58.056Z,74.900002
2023-03-12T07:21:06.588Z,13.5
2023-03-12T07:22:14.924Z,13.5
2023-03-12T07:23:23.262Z,13.5
2023-03-12T07:24:31.779Z,48.200001
2023-03-12T07:25:40.114Z,48.200001
2023-03-12T07:26:48.472Z,48.200001
2023-03-12T07:27:56.995Z,58.700001
2023-03-12T07:29:05.328Z,58.700001
2023-03-12T07:30:13.648Z,58.700001
2023-03-12T07:31:22.188Z,13.4
2023-03-12T07:32:30.586Z,13.4
2023-03-12T07:33:38.897Z,13.4
2023-03-12T07:34:47.333Z,31.299999
2023-03-12T07:35:55.754Z,31.299999
2023-03-12T07:37:03.990Z,31.299999
2023-03-12T07:38:12.550Z,66.199997
2023-03-12T07:39:20.861Z,66.199997
2023-03-12T07:40:29.197Z,66.199997
2023-03-12T07:41:37.712Z,34.799999
2023-03-12T07:42:46.048Z,34.799999
2023-03-12T07:43:54.672Z,34.799999
2023-03-12T07:45:03.198Z,3.9
2023-03-12T07:46:11.501Z,3.9
2023-03-12T07:47:23.913Z,3.9
2023-03-12T07:48:28.400Z,6.5
2023-03-12T07:49:36.700Z,6.5
2023-03-12T07:50:45.025Z,6.5
2023-03-12T07:51:53.671Z,6.6
2023-03-12T07:53:01.968Z,6.6
2023-03-12T07:54:10.316Z,6.6
2023-03-12T07:55:18.948Z,5.5
2023-03-12T07:56:27.211Z,5.5
2023-03-12T07:57:35.523Z,5.5
2023-03-12T07:58:44.144Z,6.9
2023-03-12T07:59:52.511Z,6.9
2023-03-12T08:01:00.761Z,6.9
2023-03-12T08:02:09.362Z,23.200001
2023-03-12T08:03:17.819Z,23.200001
2023-03-12T08:04:26.074Z,23.200001
2023-03-12T08:05:34.469Z,9.9
2023-03-12T08:06:42.864Z,9.9
2023-03-12T08:07:51.115Z,9.9
2023-03-12T08:08:59.656Z,6
2023-03-12T08:10:08.062Z,6
2023-03-12T08:11:16.309Z,6
2023-03-12T08:12:24.917Z,6.2
2023-03-12T08:13:33.284Z,6.2
2023-03-12T08:14:41.513Z,6.2
2023-03-12T08:15:50.027Z,7.3
2023-03-12T08:16:58.345Z,7.3
2023-03-12T08:18:06.689Z,7.3
2023-03-12T08:19:15.214Z,8.8
2023-03-12T08:20:23.581Z,8.8
2023-03-12T08:21:31.865Z,8.8
2023-03-12T08:22:40.417Z,6.1
2023-03-12T08:23:48.753Z,6.1
2023-03-12T08:24:57.066Z,6.1
2023-03-12T08:26:05.608Z,6.5
2023-03-12T08:27:13.942Z,6.5
2023-03-12T08:28:22.272Z,6.5
2023-03-12T08:29:30.813Z,5.8
2023-03-12T08:30:39.137Z,5.8
2023-03-12T08:32:01.737Z,5.8
2023-03-12T08:32:56.052Z,7
2023-03-12T08:34:04.354Z,7
2023-03-12T08:35:12.692Z,7
2023-03-12T08:36:22.535Z,8.3
2023-03-12T08:37:29.550Z,8.3
2023-03-12T08:38:37.876Z,8.3
2023-03-12T08:39:46.417Z,16.700001
2023-03-12T08:40:54.781Z,16.700001
2023-03-12T08:42:03.108Z,16.700001
2023-03-12T08:43:11.651Z,7.5
2023-03-12T08:44:19.982Z,7.5
2023-03-12T08:45:28.491Z,7.5
2023-03-12T08:46:36.841Z,10.3
2023-03-12T08:47:45.184Z,10.3
2023-03-12T08:48:53.492Z,10.3
2023-03-12T08:50:02.055Z,7.1
2023-03-12T08:51:10.389Z,7.1
2023-03-12T08:52:18.740Z,7.1
2023-03-12T08:53:27.268Z,7
2023-03-12T08:54:35.604Z,7
2023-03-12T08:55:43.939Z,7
2023-03-12T08:56:52.480Z,4.6
2023-03-12T08:58:00.813Z,4.6
2023-03-12T08:59:09.156Z,4.6
2023-03-12T09:00:17.695Z,5.8
2023-03-12T09:01:26.034Z,5.8
2023-03-12T09:02:34.354Z,5.8
2023-03-12T09:03:42.894Z,6.7
2023-03-12T09:04:51.225Z,6.7
2023-03-12T09:05:59.552Z,6.7
2023-03-12T09:07:08.085Z,6
2023-03-12T09:08:16.506Z,6
2023-03-12T09:09:24.802Z,6
2023-03-12T09:10:33.333Z,9.1
2023-03-12T09:11:41.649Z,9.1
2023-03-12T09:12:49.979Z,9.1
2023-03-12T09:14:28.317Z,9.6
2023-03-12T09:15:06.830Z,9.6
2023-03-12T09:16:15.190Z,9.6
2023-03-12T09:17:23.710Z,29.299999
2023-03-12T09:18:32.177Z,29.299999
2023-03-12T09:19:40.469Z,29.299999
2023-03-12T09:20:48.996Z,8.1
2023-03-12T09:21:57.320Z,8.1
2023-03-12T09:23:07.646Z,8.1
2023-03-12T09:24:14.266Z,4.3
2023-03-12T09:25:22.560Z,4.3
2023-03-12T09:26:30.867Z,4.3
2023-03-12T09:27:39.422Z,17.9
2023-03-12T09:28:47.745Z,17.9
2023-03-12T09:30:00.795Z,17.9
2023-03-12T09:31:04.707Z,11.5
2023-03-12T09:32:12.937Z,11.5
2023-03-12T09:33:21.261Z,11.5
2023-03-12T09:34:29.789Z,8
2023-03-12T09:35:38.139Z,8
2023-03-12T09:36:46.453Z,8
2023-03-12T09:37:55.003Z,11.2
2023-03-12T09:39:03.333Z,11.2
2023-03-12T09:40:11.668Z,11.2
2023-03-12T09:41:20.198Z,8
2023-03-12T09:42:28.534Z,8
2023-03-12T09:43:36.858Z,8
2023-03-12T09:44:45.415Z,14.9
2023-03-12T09:45:53.745Z,14.9
2023-03-12T09:47:02.043Z,14.9
2023-03-12T09:48:10.578Z,33
2023-03-12T09:49:18.905Z,33
2023-03-12T09:50:27.244Z,33
2023-03-12T09:51:35.771Z,22.299999
2023-03-12T09:52:44.108Z,22.299999
2023-03-12T09:53:52.447Z,22.299999
2023-03-12T09:55:00.977Z,21.799999
2023-03-12T09:56:09.324Z,21.799999
2023-03-12T09:57:17.653Z,21.799999
2023-03-12T09:58:26.184Z,9.6
2023-03-12T09:59:34.502Z,9.6
2023-03-12T10:00:42.835Z,9.6
2023-03-12T10:01:51.364Z,6.3
2023-03-12T10:02:59.746Z,6.3
2023-03-12T10:04:08.191Z,6.3
2023-03-12T10:05:16.629Z,5.9
2023-03-12T10:06:24.965Z,5.9
2023-03-12T10:07:33.254Z,5.9
2023-03-12T10:08:41.779Z,13.3
2023-03-12T10:09:50.122Z,13.3
2023-03-12T10:10:58.455Z,13.3
2023-03-12T10:12:07.037Z,18.6
2023-03-12T10:13:15.335Z,18.6
2023-03-12T10:14:24.462Z,18.6
2023-03-12T10:15:32.359Z,9
2023-03-12T10:16:40.540Z,9
2023-03-12T10:17:48.983Z,9
2023-03-12T10:18:57.513Z,14.2
2023-03-12T10:20:05.751Z,14.2
2023-03-12T10:21:14.074Z,14.2
2023-03-12T10:22:22.715Z,8.9
2023-03-12T10:23:31.209Z,8.9
2023-03-12T10:24:39.562Z,8.9
2023-03-12T10:25:48.205Z,11.9
2023-03-12T10:26:56.527Z,11.9
2023-03-12T10:28:04.884Z,11.9
2023-03-12T10:29:13.410Z,7.9
2023-03-12T10:30:21.723Z,7.9
2023-03-12T10:31:30.136Z,7.9
2023-03-12T10:32:38.670Z,9.6
2023-03-12T10:33:46.970Z,9.6
2023-03-12T10:34:55.298Z,9.6
2023-03-12T10:36:03.850Z,5.7
2023-03-12T10:37:12.167Z,5.7
2023-03-12T10:38:20.504Z,5.7
2023-03-12T10:39:29.032Z,4.8
2023-03-12T10:40:37.356Z,4.8
2023-03-12T10:41:45.706Z,4.8
2023-03-12T10:42:54.252Z,6.4
2023-03-12T10:44:02.665Z,6.4
2023-03-12T10:45:10.997Z,6.4
2023-03-12T10:46:19.563Z,20
2023-03-12T10:47:27.861Z,20
2023-03-12T10:48:36.180Z,20
2023-03-12T10:49:44.710Z,6.8
2023-03-12T10:50:53.045Z,6.8
2023-03-12T10:52:01.392Z,6.8
2023-03-12T10:53:09.915Z,5.7
2023-03-12T10:54:18.235Z,5.7
2023-03-12T10:55:26.546Z,5.7
2023-03-12T10:56:35.085Z,7.8
2023-03-12T10:57:43.411Z,7.8
2023-03-12T10:58:51.739Z,7.8
2023-03-12T11:00:00.303Z,5.4
2023-03-12T11:01:08.609Z,5.4
2023-03-12T11:02:16.952Z,5.4
2023-03-12T11:03:25.507Z,7.5
2023-03-12T11:04:33.837Z,7.5
2023-03-12T11:05:42.175Z,7.5
2023-03-12T11:06:50.659Z,6.3
2023-03-12T11:07:59.009Z,6.3
2023-03-12T11:09:16.505Z,6.3
2023-03-12T11:10:15.861Z,5.6
2023-03-12T11:11:24.188Z,5.6
2023-03-12T11:12:32.575Z,5.6
2023-03-12T11:13:41.062Z,8
2023-03-12T11:14:49.380Z,8
2023-03-12T11:15:57.822Z,8
2023-03-12T11:17:06.286Z,7.1
2023-03-12T11:18:14.584Z,7.1
2023-03-12T11:19:22.926Z,7.1
2023-03-12T11:20:31.468Z,5.3
2023-03-12T11:21:39.795Z,5.3
2023-03-12T11:22:50.029Z,5.3
2023-03-12T11:23:56.683Z,5.5
2023-03-12T11:25:04.998Z,5.5
2023-03-12T11:26:13.324Z,5.5
2023-03-12T11:27:21.895Z,10.1
2023-03-12T11:28:30.276Z,10.1
2023-03-12T11:29:38.638Z,10.1
2023-03-12T11:30:47.138Z,7.4
2023-03-12T11:31:55.486Z,7.4
2023-03-12T11:33:03.770Z,7.4
2023-03-12T11:34:12.322Z,5.8
2023-03-12T11:35:20.703Z,5.8
2023-03-12T11:36:28.969Z,5.8
2023-03-12T11:37:39.884Z,5.1
2023-03-12T11:38:45.847Z,5.1
2023-03-12T11:39:54.182Z,5.1
2023-03-12T11:41:02.709Z,7.5
2023-03-12T11:42:11.054Z,7.5
2023-03-12T11:43:26.376Z,7.5
2023-03-12T11:44:27.909Z,7.6
2023-03-12T11:45:36.244Z,7.6
2023-03-12T11:46:44.610Z,7.6
2023-03-12T11:47:53.216Z,7.6
2023-03-12T11:49:01.431Z,7.6
2023-03-12T11:50:09.761Z,7.6
2023-03-12T11:51:18.304Z,11.7
2023-03-12T11:52:26.643Z,11.7
2023-03-12T11:53:34.973Z,11.7
2023-03-12T11:54:43.507Z,8.3
2023-03-12T11:55:51.857Z,8.3
2023-03-12T11:57:00.200Z,8.3
2023-03-12T11:58:08.753Z,6.4
2023-03-12T11:59:17.080Z,6.4
2023-03-12T12:00:25.433Z,6.4
2023-03-12T12:01:33.970Z,4.9
2023-03-12T12:02:42.306Z,4.9
2023-03-12T12:03:50.659Z,4.9
2023-03-12T12:04:59.178Z,5.6
2023-03-12T12:06:07.512Z,5.6
2023-03-12T12:07:15.845Z,5.6
2023-03-12T12:08:24.413Z,6.3
2023-03-12T12:09:32.731Z,6.3
2023-03-12T12:10:41.061Z,6.3
2023-03-12T12:11:49.608Z,5.1
2023-03-12T12:12:57.954Z,5.1
2023-03-12T12:14:06.276Z,5.1
2023-03-12T12:15:14.814Z,5.7
2023-03-12T12:16:23.218Z,5.7
2023-03-12T12:17:31.516Z,5.7
2023-03-12T12:18:40.072Z,5
2023-03-12T12:19:48.433Z,5
2023-03-12T12:20:56.734Z,5
2023-03-12T12:22:05.299Z,8.3
2023-03-12T12:23:13.614Z,8.3
2023-03-12T12:24:21.951Z,8.3
2023-03-12T12:25:30.482Z,6
2023-03-12T12:26:38.815Z,6
2023-03-12T12:27:47.152Z,6
2023-03-12T12:28:55.690Z,7.1
2023-03-12T12:30:04.056Z,7.1
2023-03-12T12:31:12.385Z,7.1
2023-03-12T12:32:21.030Z,3.8
2023-03-12T12:33:29.266Z,3.8
2023-03-12T12:34:37.609Z,3.8
2023-03-12T12:35:46.313Z,5
2023-03-12T12:36:54.481Z,5
2023-03-12T12:38:02.831Z,5
2023-03-12T12:39:11.385Z,5.8
2023-03-12T12:40:19.796Z,5.8
2023-03-12T12:41:28.118Z,5.8
2023-03-12T12:42:36.704Z,5.9
2023-03-12T12:43:45.038Z,5.9
2023-03-12T12:44:53.392Z,5.9
2023-03-12T12:46:02.003Z,7.2
2023-03-12T12:47:10.273Z,7.2
2023-03-12T12:48:18.602Z,7.2
2023-03-12T12:49:27.136Z,6.5
2023-03-12T12:50:35.455Z,6.5
2023-03-12T12:51:43.851Z,6.5
2023-03-12T12:52:53.252Z,5.2
2023-03-12T12:54:01.595Z,5.2
2023-03-12T12:55:09.936Z,5.2
2023-03-12T12:56:18.466Z,5.3
2023-03-12T12:57:26.800Z,5.3
2023-03-12T12:58:35.116Z,5.3
2023-03-12T12:59:43.663Z,7.5
2023-03-12T13:00:51.999Z,7.5
2023-03-12T13:02:00.311Z,7.5
2023-03-12T13:03:08.863Z,4
2023-03-12T13:04:17.218Z,4
2023-03-12T13:05:25.509Z,4
2023-03-12T13:06:34.053Z,5.7
2023-03-12T13:07:42.429Z,5.7
2023-03-12T13:08:50.733Z,5.7
2023-03-12T13:09:59.308Z,5.2
2023-03-12T13:11:17.518Z,5.2
2023-03-12T13:12:15.956Z,5.2
2023-03-12T13:13:26.197Z,6.7
2023-03-12T13:14:32.809Z,6.7
2023-03-12T13:15:41.173Z,6.7
2023-03-12T13:16:49.662Z,6
2023-03-12T13:17:57.997Z,6
2023-03-12T13:19:06.328Z,6
2023-03-12T13:20:14.871Z,5.2
2023-03-12T13:21:23.201Z,5.2
2023-03-12T13:22:31.542Z,5.2
2023-03-12T13:23:40.133Z,5
2023-03-12T13:24:48.424Z,5
2023-03-12T13:25:56.744Z,5
2023-03-12T13:27:05.281Z,4.7
2023-03-12T13:28:13.613Z,4.7
2023-03-12T13:29:21.930Z,4.7
2023-03-12T13:30:30.468Z,5.9
2023-03-12T13:31:38.872Z,5.9
2023-03-12T13:32:47.193Z,5.9
2023-03-12T13:33:55.672Z,5.4
2023-03-12T13:35:04.123Z,5.4
2023-03-12T13:36:12.392Z,5.4
2023-03-12T13:37:20.852Z,5.8
2023-03-12T13:38:29.179Z,5.8
2023-03-12T13:39:37.546Z,5.8
2023-03-12T13:40:46.045Z,6
2023-03-12T13:41:54.364Z,6
2023-03-12T13:43:02.709Z,6
2023-03-12T13:44:11.258Z,7
2023-03-12T13:45:19.570Z,7
2023-03-12T13:46:28.064Z,7
2023-03-12T13:47:36.457Z,5.6
2023-03-12T13:48:44.783Z,5.6
2023-03-12T13:49:53.140Z,5.6
2023-03-12T13:51:01.656Z,6.6
2023-03-12T13:52:10.019Z,6.6
2023-03-12T13:53:18.334Z,6.6
2023-03-12T13:54:26.870Z,6.7
2023-03-12T13:55:35.237Z,6.7
2023-03-12T13:56:43.509Z,6.7
2023-03-12T13:57:52.075Z,27
2023-03-12T13:59:00.395Z,27
2023-03-12T14:00:08.715Z,27
2023-03-12T14:01:17.292Z,10.9
2023-03-12T14:02:25.602Z,10.9
2023-03-12T14:03:33.943Z,10.9
2023-03-12T14:04:42.781Z,17.200001
2023-03-12T14:05:51.151Z,17.200001
2023-03-12T14:06:59.544Z,17.200001
2023-03-12T14:08:08.172Z,9
2023-03-12T14:09:16.538Z,9
2023-03-12T14:10:24.925Z,9
2023-03-12T14:11:33.746Z,6.8
2023-03-12T14:12:42.112Z,6.8
2023-03-12T14:13:50.469Z,6.8
2023-03-12T14:14:59.084Z,10.1
2023-03-12T14:16:07.451Z,10.1
2023-03-12T14:17:15.854Z,10.1
2023-03-12T14:18:24.444Z,8.7
2023-03-12T14:19:32.858Z,8.7
2023-03-12T14:20:41.239Z,8.7
2023-03-12T14:21:49.798Z,7.3
2023-03-12T14:22:58.229Z,7.3
2023-03-12T14:24:06.595Z,7.3
2023-03-12T14:25:15.171Z,26.700001
2023-03-12T14:26:23.546Z,26.700001
2023-03-12T14:27:31.975Z,26.700001
2023-03-12T14:28:40.517Z,20.1
2023-03-12T14:29:48.928Z,20.1
2023-03-12T14:30:57.427Z,20.1
2023-03-12T15:04:17.519Z,0
2023-03-12T15:05:25.820Z,0
2023-03-12T15:06:34.216Z,0
2023-03-12T15:07:42.816Z,20.9
2023-03-12T15:08:51.199Z,20.9
2023-03-12T15:09:59.599Z,20.9
2023-03-12T15:11:08.221Z,83
2023-03-12T15:12:16.622Z,83
2023-03-12T15:13:25.020Z,83
2023-03-12T15:14:33.601Z,386.1
2023-03-12T15:15:41.991Z,386.1
2023-03-12T15:16:50.381Z,386.1
2023-03-12T15:17:58.992Z,28.5
2023-03-12T15:19:07.408Z,28.5
2023-03-12T15:20:15.814Z,28.5
2023-03-12T15:21:24.412Z,5.1
2023-03-12T15:22:32.884Z,5.1
2023-03-12T15:23:41.201Z,5.1
2023-03-12T15:24:49.828Z,1.7
2023-03-12T15:25:58.215Z,1.7
2023-03-12T15:27:06.591Z,1.7
2023-03-12T15:28:15.195Z,2.6
2023-03-12T15:29:23.597Z,2.6
2023-03-12T15:30:31.986Z,2.6
2023-03-12T15:31:40.660Z,3.8
2023-03-12T15:32:49.061Z,3.8
2023-03-12T15:33:57.403Z,3.8
2023-03-12T15:35:06.010Z,7.7
2023-03-12T15:36:14.548Z,7.7
2023-03-12T15:37:22.834Z,7.7
2023-03-12T15:38:31.417Z,16.6
2023-03-12T15:39:39.883Z,16.6
2023-03-12T15:40:48.179Z,16.6
2023-03-12T15:41:56.844Z,2.1
2023-03-12T15:43:05.173Z,2.1
2023-03-12T15:44:13.582Z,2.1
2023-03-12T15:45:22.199Z,3
2023-03-12T15:46:30.632Z,3
2023-03-12T15:47:38.911Z,3
2023-03-12T15:48:47.499Z,2.9
2023-03-12T15:49:55.878Z,2.9
2023-03-12T15:51:04.262Z,2.9
2023-03-12T15:52:12.902Z,2.5
2023-03-12T15:53:21.241Z,2.5
2023-03-12T15:54:29.619Z,2.5
2023-03-12T15:55:38.270Z,5.5
2023-03-12T15:56:46.655Z,5.5
2023-03-12T15:57:55.051Z,5.5
2023-03-12T15:59:03.639Z,5.7
2023-03-12T16:00:12.045Z,5.7
2023-03-12T16:01:20.495Z,5.7
2023-03-12T16:02:29.037Z,1.9
2023-03-12T16:03:37.441Z,1.9
2023-03-12T16:04:45.794Z,1.9
2023-03-12T16:05:54.393Z,1.5
2023-03-12T16:07:02.800Z,1.5
2023-03-12T16:08:11.196Z,1.5
2023-03-12T16:09:19.801Z,2.1
2023-03-12T16:10:28.183Z,2.1